Terre Haute, IN (47801)

6:52 AM EDT on September 03, 2015 (GMT -0400)
Ohio Boulevard | | Change Station
CLOSE
Current Station
Personal Weather Station
Location: Terre Haute, IN
Elevation: 502 ft
Nearby Weather Stations

Elev 502 ft 39.47 °N, 87.39 °W | Updated 3 minutes ago

Fog
Fog
68.2 °F
Feels Like 68.2 °F
N
0.0
Wind Variable Wind from South

Today
High -- | Low -- °F
--% Chance of Precip.
Yesterday
High -- | Low -- °F
Precip. -- in
7:19 AM 8:17 PM
Waning Gibbous, 71% visible
Pressure 30.02 in
Visibility 0.2 miles
Clouds
Dew Point 65 °F
Humidity 90%
Rainfall 0.00 in
Snow Depth Not available.
UV Not available.
Pollen 10.40 out of 12
Air Quality Not available.
Flu Activity Not available.
SPECI KHUF 031046Z 00000KT 1/4SM R05/3000VP6000FT FG VV003 17/16 A3002 RMK AO2 T01670161
Pressure 30.02 in
Visibility 0.2 miles
Clouds
Dew Point 65 °F
Humidity 90%
Rainfall 0.00 in
Snow Depth Not available.
UV Not available.
Pollen 10.40 out of 12
Air Quality Not available.
Flu Activity Not available.
SPECI KHUF 031046Z 00000KT 1/4SM R05/3000VP6000FT FG VV003 17/16 A3002 RMK AO2 T01670161

10-Day Weather Forecast

×

Almanac

Astronomy

Sep. 03, 2015 Rise Set
Actual Time
Civil Twilight
Nautical Twilight
Astronomical Twilight
Moon
Length of Visible Light
Length of Day
Tomorrow will be .
, % of the Moon is Illuminated

Today's Extremes

State Highs State Lows

Community

WunderPhotos

Upload Photos

1,851,933 photos uploaded!

WunderBlogs® & News

Nearby

Air Quality

  Air Quality AQ Index Pollutant
Not available.

Snow Depth

Station Depth Elevation

Earthquake Activity

City Distance Mag. Time & Date
Minimum magnitude displayed is 2.5.

Coastal Water Temperatures

Place Temperature

Stations

Nearby Weather Stations

Station Location Temp. Windchill Dew Point Humidity Wind Precip. Elev Updated Type